AirNav   Air Wisconsin Up To $57,000 Bonus
 
 1679 users online  

S79 Green Sea Airport
Green Sea, South Carolina, USA

GOING TO GREEN SEA?


FAA INFORMATION EFFECTIVE 07 OCTOBER 2021

Location

FAA Identifier: S79
Lat/Long: 34-11-08.0000N 079-01-14.1150W
34-11.133333N 079-01.235250W
34.1855556,-79.0205875
(estimated)
Elevation: 95 ft. / 29 m (estimated)
Variation: 07W (1990)
From city: 4 miles NW of GREEN SEA, SC
Time zone: UTC -4 (UTC -5 during Standard Time)
Zip code: 29581

Airport Operations

Airport use: Open to the public
Activation date: 04/1993
Control tower: no
ARTCC: JACKSONVILLE CENTER
FSS: ANDERSON FLIGHT SERVICE STATION
NOTAMs facility: AND (NOTAM-D service available)
Attendance: UNATNDD
Wind indicator: yes
Segmented circle: no

Airport Communications

CTAF: 122.9
WX AWOS-3 at MAO (16 nm W): 119.875 (843-423-4231)
WX AWOS-3 at CPC (16 nm E): 118.375 (910-642-7508)

Nearby radio navigation aids

VOR radial/distance  VOR name  Freq  Var
CREr330/26.7GRAND STRAND VORTAC114.4003W
FLOr098/31.7FLORENCE VORTAC115.2003W

 
NDB name  Hdg/Dist  Freq  Var  ID
CAMP258/16.222707WCPC -.-. .--. -.-.
HORRY022/22.437008WHYW .... -.-- .--
DILLON142/23.427409WDLC -.. .-.. -.-.

Airport Services

Parking: tiedowns

Runway Information

Runway 9/27

Dimensions: 3600 x 100 ft. / 1097 x 30 m
Surface: turf, in excellent condition
Runway edge markings: RY EDGE MKD BY WHITE CONES.
RUNWAY 9  RUNWAY 27
Traffic pattern: leftleft
Obstructions: 80 ft. tree, 541 ft. from runway, 150 ft. left of centerline, 6:1 slope to clear115 ft. tree, 1844 ft. from runway, 89 ft. right of centerline, 16:1 slope to clear

Airport Ownership and Management from official FAA records

Ownership: Privately-owned
Owner: EARL SHAW
PO BOX 123
LONG, SC 29568
Phone 843-756-1497
Manager: CODY HERRING
3333 MT OLIVE CHURCH ROAD
GREEN SEA, SC 29568
Phone 843-230-0362

Airport Operational Statistics

Aircraft operations: avg 21/month *
100% transient general aviation
* for 12-month period ending 17 September 2019

Additional Remarks

REMOTE CONTROLLED ACFT INVOF ARPT.
FOR CD CTC MYRTLE BEACH APCH AT 843-477-2727 OR 843-477-2704, WHEN APCH CLSD CTC JACKSONVILLE ARTCC AT 904-845-1592.

Instrument Procedures

There are no published instrument procedures at S79.

Some nearby airports with instrument procedures:

5J9 - Twin City Airport (10 nm SE)
KMAO - Marion County Airport (16 nm W)
KCPC - Columbus County Municipal Airport (16 nm E)
KHYW - Conway-Horry County Airport (22 nm S)
KDLC - Dillon County Airport (23 nm NW)
 
Loc | Ops | Rwys | IFR | FBO | Links
Com | Nav | Svcs | Stats | Notes
Area around S79 (Green Sea Airport)
 
Road maps at: MapQuest Bing Google
 
Aerial photo
WARNING: Photo may not be current or correct
Aerial photo of S79 (Green Sea Airport)
Photo taken 29-Aug-2010
looking west.

Do you have a better or more recent aerial photo of Green Sea Airport that you would like to share? If so, please send us your photo.

 
Sectional chart

 
Airport distance calculator
Flying to Green Sea Airport? Find the distance to fly.

From to S79

Sunrise and sunset
Times for 20-Oct-2021
 Local
(UTC-4)
 Zulu
(UTC)
Morning civil twilight07:0111:01
Sunrise07:2611:26
Sunset18:3522:35
Evening civil twilight19:0123:01

Current date and time
Zulu (UTC)  20-Oct-2021 18:04:12
Local (UTC-4)  20-Oct-2021 14:04:12
 
METAR
KMAO 
16nm W 
201755Z AUTO 26005KT 10SM CLR 25/10 A3023 RMK AO2
KCPC 
16nm E 
201735Z AUTO 28005KT 10SM CLR 25/10 A3023 RMK AO2 T02460098
KHYW 
22nm S 
201755Z AUTO 23004KT 10SM CLR 24/10 A3022 RMK AO2
KCRE 
27nm SE 
201753Z 28003KT 10SM CLR 25/09 A3021 RMK AO1 SLP232 T02500089 10256 20122 58021
TAF
KLBT 
25nm N 
201720Z 2018/2118 26008KT P6SM SKC FM202200 24005KT P6SM SKC FM211500 23009KT P6SM FEW200 AMD NOT SKED
KCRE 
27nm SE 
201720Z 2018/2118 24008KT P6SM SKC FM202000 22008KT P6SM SKC FM210600 25006KT P6SM SCT200 FM211500 23009KT P6SM FEW200
NOTAMs
Click for the latest NOTAMs
NOTAMs are issued by the DoD/FAA and will open in a separate window not controlled by AirNav.

 

 
 

Would you like to see your business listed on this page?

 If your business provides an interesting product or service to pilots, flight crews, aircraft, or users of the Green Sea Airport, you should consider listing it here.  To start the listing process, click on the button below
 
Add a business
 

Other Pages about Green Sea Airport

Update a link
 
Copyright © AirNav, LLC. All rights reserved. Privacy Policy  Contact